sensor_id;sensor_type;location;lat;lon;timestamp;pressure;altitude;pressure_sealevel;temperature;humidity
20394;BME280;10356;50.544;9.642;2022-12-17T00:00:58;98778.66;;;-5.28;100.00
20394;BME280;10356;50.544;9.642;2022-12-17T00:03:42;98781.19;;;-5.28;100.00
20394;BME280;10356;50.544;9.642;2022-12-17T00:06:37;98779.47;;;-5.24;100.00
20394;BME280;10356;50.544;9.642;2022-12-17T00:09:23;98783.66;;;-5.20;100.00
20394;BME280;10356;50.544;9.642;2022-12-17T00:12:07;98794.66;;;-5.18;100.00
20394;BME280;10356;50.544;9.642;2022-12-17T00:14:51;98798.84;;;-5.11;100.00
20394;BME280;10356;50.544;9.642;2022-12-17T00:17:35;98799.69;;;-5.12;100.00
20394;BME280;10356;50.544;9.642;2022-12-17T00:20:19;98804.78;;;-5.09;100.00
20394;BME280;10356;50.544;9.642;2022-12-17T00:23:04;98804.78;;;-5.12;100.00
20394;BME280;10356;50.544;9.642;2022-12-17T00:25:51;98810.69;;;-5.07;100.00
20394;BME280;10356;50.544;9.642;2022-12-17T00:28:34;98804.81;;;-5.15;100.00
20394;BME280;10356;50.544;9.642;2022-12-17T00:31:18;98803.97;;;-5.16;100.00
20394;BME280;10356;50.544;9.642;2022-12-17T00:34:02;98807.31;;;-5.09;100.00
20394;BME280;10356;50.544;9.642;2022-12-17T00:36:46;98803.09;;;-5.13;100.00
20394;BME280;10356;50.544;9.642;2022-12-17T00:39:30;98807.31;;;-5.09;100.00
20394;BME280;10356;50.544;9.642;2022-12-17T00:42:15;98809.03;;;-5.14;100.00
20394;BME280;10356;50.544;9.642;2022-12-17T00:44:59;98805.53;;;-5.02;100.00
20394;BME280;10356;50.544;9.642;2022-12-17T00:47:43;98813.25;;;-5.16;100.00
20394;BME280;10356;50.544;9.642;2022-12-17T00:50:27;98814.09;;;-5.13;100.00
20394;BME280;10356;50.544;9.642;2022-12-17T00:53:11;98812.38;;;-5.09;100.00
20394;BME280;10356;50.544;9.642;2022-12-17T00:55:54;98813.22;;;-5.07;100.00
20394;BME280;10356;50.544;9.642;2022-12-17T00:58:40;98815.72;;;-5.02;100.00
20394;BME280;10356;50.544;9.642;2022-12-17T01:01:24;98808.09;;;-5.01;100.00
20394;BME280;10356;50.544;9.642;2022-12-17T01:04:08;98804.66;;;-4.94;100.00
20394;BME280;10356;50.544;9.642;2022-12-17T01:06:52;98812.28;;;-4.95;100.00
20394;BME280;10356;50.544;9.642;2022-12-17T01:09:36;98816.50;;;-4.93;100.00
20394;BME280;10356;50.544;9.642;2022-12-17T01:12:20;98819.88;;;-4.94;100.00
20394;BME280;10356;50.544;9.642;2022-12-17T01:15:06;98822.44;;;-4.95;100.00
20394;BME280;10356;50.544;9.642;2022-12-17T01:17:50;98830.91;;;-4.95;100.00
20394;BME280;10356;50.544;9.642;2022-12-17T01:20:34;98836.00;;;-4.96;100.00
20394;BME280;10356;50.544;9.642;2022-12-17T01:23:17;98834.28;;;-4.94;100.00
20394;BME280;10356;50.544;9.642;2022-12-17T01:26:01;98841.91;;;-4.96;100.00
20394;BME280;10356;50.544;9.642;2022-12-17T01:28:45;98832.63;;;-4.95;100.00
20394;BME280;10356;50.544;9.642;2022-12-17T01:31:31;98839.38;;;-4.96;100.00
20394;BME280;10356;50.544;9.642;2022-12-17T01:34:14;98836.78;;;-4.90;100.00
20394;BME280;10356;50.544;9.642;2022-12-17T01:36:58;98842.72;;;-4.92;100.00
20394;BME280;10356;50.544;9.642;2022-12-17T01:39:42;98852.91;;;-4.92;100.00
20394;BME280;10356;50.544;9.642;2022-12-17T01:42:23;98850.38;;;-4.94;100.00
20394;BME280;10356;50.544;9.642;2022-12-17T01:45:10;98859.69;;;-4.93;100.00
20394;BME280;10356;50.544;9.642;2022-12-17T01:47:58;98860.53;;;-4.94;100.00
20394;BME280;10356;50.544;9.642;2022-12-17T01:50:47;98863.03;;;-4.88;100.00
20394;BME280;10356;50.544;9.642;2022-12-17T01:53:35;98863.91;;;-4.92;100.00
20394;BME280;10356;50.544;9.642;2022-12-17T01:56:20;98866.41;;;-4.86;100.00
20394;BME280;10356;50.544;9.642;2022-12-17T01:59:06;98862.16;;;-4.84;100.00
20394;BME280;10356;50.544;9.642;2022-12-17T02:01:51;98868.09;;;-4.83;100.00
20394;BME280;10356;50.544;9.642;2022-12-17T02:04:36;98864.69;;;-4.79;100.00
20394;BME280;10356;50.544;9.642;2022-12-17T02:07:33;98873.16;;;-4.79;100.00
20394;BME280;10356;50.544;9.642;2022-12-17T02:10:23;98886.69;;;-4.75;100.00
20394;BME280;10356;50.544;9.642;2022-12-17T02:13:13;98878.25;;;-4.79;100.00
20394;BME280;10356;50.544;9.642;2022-12-17T02:16:02;98875.69;;;-4.79;100.00
20394;BME280;10356;50.544;9.642;2022-12-17T02:18:52;98892.53;;;-4.63;100.00
20394;BME280;10356;50.544;9.642;2022-12-17T02:21:41;98879.03;;;-4.74;100.00
20394;BME280;10356;50.544;9.642;2022-12-17T02:24:31;98889.19;;;-4.71;100.00
20394;BME280;10356;50.544;9.642;2022-12-17T02:27:22;98887.50;;;-4.72;100.00
20394;BME280;10356;50.544;9.642;2022-12-17T02:30:08;98895.16;;;-4.78;100.00
20394;BME280;10356;50.544;9.642;2022-12-17T02:32:53;98885.88;;;-4.79;100.00
20394;BME280;10356;50.544;9.642;2022-12-17T02:35:41;98883.28;;;-4.73;100.00
20394;BME280;10356;50.544;9.642;2022-12-17T02:38:28;98888.31;;;-4.70;100.00
20394;BME280;10356;50.544;9.642;2022-12-17T02:41:16;98889.19;;;-4.71;100.00
20394;BME280;10356;50.544;9.642;2022-12-17T02:44:03;98887.47;;;-4.67;100.00
20394;BME280;10356;50.544;9.642;2022-12-17T02:46:48;98891.69;;;-4.68;100.00
20394;BME280;10356;50.544;9.642;2022-12-17T02:49:34;98897.63;;;-4.66;100.00
20394;BME280;10356;50.544;9.642;2022-12-17T02:52:19;98895.94;;;-4.70;100.00
20394;BME280;10356;50.544;9.642;2022-12-17T02:55:04;98893.41;;;-4.67;100.00
20394;BME280;10356;50.544;9.642;2022-12-17T02:57:48;98898.47;;;-4.65;100.00
20394;BME280;10356;50.544;9.642;2022-12-17T03:00:33;98896.78;;;-4.68;100.00
20394;BME280;10356;50.544;9.642;2022-12-17T03:03:32;98907.72;;;-4.58;100.00
20394;BME280;10356;50.544;9.642;2022-12-17T03:06:16;98898.41;;;-4.58;100.00
20394;BME280;10356;50.544;9.642;2022-12-17T03:09:00;98900.91;;;-4.52;100.00
20394;BME280;10356;50.544;9.642;2022-12-17T03:11:44;98899.25;;;-4.56;100.00
20394;BME280;10356;50.544;9.642;2022-12-17T03:14:28;98901.78;;;-4.53;100.00
20394;BME280;10356;50.544;9.642;2022-12-17T03:17:14;98899.25;;;-4.56;100.00
20394;BME280;10356;50.544;9.642;2022-12-17T03:19:58;98910.31;;;-4.63;100.00
20394;BME280;10356;50.544;9.642;2022-12-17T03:22:42;98915.34;;;-4.58;100.00
20394;BME280;10356;50.544;9.642;2022-12-17T03:25:26;98911.16;;;-4.61;100.00
20394;BME280;10356;50.544;9.642;2022-12-17T03:28:10;98917.09;;;-4.63;100.00
20394;BME280;10356;50.544;9.642;2022-12-17T03:30:56;98920.53;;;-4.69;100.00
20394;BME280;10356;50.544;9.642;2022-12-17T03:33:42;98923.06;;;-4.69;100.00
20394;BME280;10356;50.544;9.642;2022-12-17T03:36:26;98919.66;;;-4.68;100.00
20394;BME280;10356;50.544;9.642;2022-12-17T03:39:10;98924.75;;;-4.65;100.00
20394;BME280;10356;50.544;9.642;2022-12-17T03:41:54;98929.81;;;-4.65;100.00
20394;BME280;10356;50.544;9.642;2022-12-17T03:44:38;98929.78;;;-4.62;100.00
20394;BME280;10356;50.544;9.642;2022-12-17T03:47:22;98925.56;;;-4.63;100.00
20394;BME280;10356;50.544;9.642;2022-12-17T03:50:07;98926.41;;;-4.64;100.00
20394;BME280;10356;50.544;9.642;2022-12-17T03:52:52;98930.63;;;-4.60;100.00
20394;BME280;10356;50.544;9.642;2022-12-17T03:55:35;98931.50;;;-4.61;100.00
20394;BME280;10356;50.544;9.642;2022-12-17T03:58:19;98933.19;;;-4.64;100.00
20394;BME280;10356;50.544;9.642;2022-12-17T04:01:04;98934.03;;;-4.64;100.00
20394;BME280;10356;50.544;9.642;2022-12-17T04:03:48;98926.41;;;-4.64;100.00
20394;BME280;10356;50.544;9.642;2022-12-17T04:06:33;98940.88;;;-4.69;100.00
20394;BME280;10356;50.544;9.642;2022-12-17T04:09:17;98941.66;;;-4.61;100.00
20394;BME280;10356;50.544;9.642;2022-12-17T04:12:09;98932.31;;;-4.60;100.00
20394;BME280;10356;50.544;9.642;2022-12-17T04:14:53;98932.31;;;-4.62;100.00
20394;BME280;10356;50.544;9.642;2022-12-17T04:17:37;98944.16;;;-4.58;100.00
20394;BME280;10356;50.544;9.642;2022-12-17T04:20:21;98945.88;;;-4.60;100.00
20394;BME280;10356;50.544;9.642;2022-12-17T04:23:06;98942.50;;;-4.62;100.00
20394;BME280;10356;50.544;9.642;2022-12-17T04:25:55;98945.88;;;-4.60;100.00
20394;BME280;10356;50.544;9.642;2022-12-17T04:28:39;98947.59;;;-4.63;100.00
20394;BME280;10356;50.544;9.642;2022-12-17T04:31:23;98953.50;;;-4.57;100.00
20394;BME280;10356;50.544;9.642;2022-12-17T04:34:07;98954.34;;;-4.59;100.00
20394;BME280;10356;50.544;9.642;2022-12-17T04:36:51;98952.63;;;-4.56;100.00
20394;BME280;10356;50.544;9.642;2022-12-17T04:39:36;98957.72;;;-4.53;100.00
20394;BME280;10356;50.544;9.642;2022-12-17T04:42:20;98962.81;;;-4.60;100.00
20394;BME280;10356;50.544;9.642;2022-12-17T04:45:05;98956.06;;;-4.63;100.00
20394;BME280;10356;50.544;9.642;2022-12-17T04:47:49;98968.78;;;-4.66;100.00
20394;BME280;10356;50.544;9.642;2022-12-17T04:50:33;98967.09;;;-4.68;100.00
20394;BME280;10356;50.544;9.642;2022-12-17T04:53:17;98967.94;;;-4.66;100.00
20394;BME280;10356;50.544;9.642;2022-12-17T04:56:03;98977.28;;;-4.67;100.00
20394;BME280;10356;50.544;9.642;2022-12-17T04:58:47;98980.69;;;-4.71;100.00
20394;BME280;10356;50.544;9.642;2022-12-17T05:01:31;98988.34;;;-4.77;100.00
20394;BME280;10356;50.544;9.642;2022-12-17T05:04:15;98984.94;;;-4.77;100.00
20394;BME280;10356;50.544;9.642;2022-12-17T05:06:59;98983.22;;;-4.72;100.00
20394;BME280;10356;50.544;9.642;2022-12-17T05:09:43;98988.34;;;-4.75;100.00
20394;BME280;10356;50.544;9.642;2022-12-17T05:12:28;98986.69;;;-4.81;100.00
20394;BME280;10356;50.544;9.642;2022-12-17T05:15:12;98991.75;;;-4.84;100.00
20394;BME280;10356;50.544;9.642;2022-12-17T05:18:03;99002.75;;;-4.82;100.00
20394;BME280;10356;50.544;9.642;2022-12-17T05:20:47;99011.25;;;-4.86;100.00
20394;BME280;10356;50.544;9.642;2022-12-17T05:23:32;99012.06;;;-4.79;100.00
20394;BME280;10356;50.544;9.642;2022-12-17T05:26:18;99018.81;;;-4.78;100.00
20394;BME280;10356;50.544;9.642;2022-12-17T05:29:04;99008.66;;;-4.78;100.00
20394;BME280;10356;50.544;9.642;2022-12-17T05:31:49;99016.34;;;-4.83;100.00
20394;BME280;10356;50.544;9.642;2022-12-17T05:34:32;99018.00;;;-4.82;100.00
20394;BME280;10356;50.544;9.642;2022-12-17T05:37:16;99023.09;;;-4.82;100.00
20394;BME280;10356;50.544;9.642;2022-12-17T05:40:00;99033.31;;;-4.91;100.00
20394;BME280;10356;50.544;9.642;2022-12-17T05:42:53;99028.22;;;-4.91;100.00
20394;BME280;10356;50.544;9.642;2022-12-17T05:45:39;99037.53;;;-4.94;100.00
20394;BME280;10356;50.544;9.642;2022-12-17T05:48:23;99029.06;;;-4.92;100.00
20394;BME280;10356;50.544;9.642;2022-12-17T05:51:07;99034.16;;;-4.98;100.00
20394;BME280;10356;50.544;9.642;2022-12-17T05:53:51;99034.97;;;-4.87;100.00
20394;BME280;10356;50.544;9.642;2022-12-17T05:56:35;99035.88;;;-5.06;100.00
20394;BME280;10356;50.544;9.642;2022-12-17T05:59:15;99033.34;;;-5.06;100.00
20394;BME280;10356;50.544;9.642;2022-12-17T06:02:01;99035.91;;;-5.18;100.00
20394;BME280;10356;50.544;9.642;2022-12-17T06:04:44;99037.59;;;-5.16;100.00
20394;BME280;10356;50.544;9.642;2022-12-17T06:07:29;99040.13;;;-5.17;100.00
20394;BME280;10356;50.544;9.642;2022-12-17T06:10:13;99046.91;;;-5.12;100.00
20394;BME280;10356;50.544;9.642;2022-12-17T06:12:56;99049.44;;;-5.16;100.00
20394;BME280;10356;50.544;9.642;2022-12-17T06:15:40;99052.00;;;-5.13;100.00
20394;BME280;10356;50.544;9.642;2022-12-17T06:18:25;99047.75;;;-5.19;100.00
20394;BME280;10356;50.544;9.642;2022-12-17T06:21:09;99048.63;;;-5.30;100.00
20394;BME280;10356;50.544;9.642;2022-12-17T06:23:54;99046.94;;;-5.28;100.00
20394;BME280;10356;50.544;9.642;2022-12-17T06:26:38;99054.53;;;-5.19;100.00
20394;BME280;10356;50.544;9.642;2022-12-17T06:29:22;99055.38;;;-5.23;100.00
20394;BME280;10356;50.544;9.642;2022-12-17T06:32:05;99058.78;;;-5.15;100.00
20394;BME280;10356;50.544;9.642;2022-12-17T06:34:51;99061.31;;;-5.20;100.00
20394;BME280;10356;50.544;9.642;2022-12-17T06:37:34;99060.50;;;-5.32;100.00
20394;BME280;10356;50.544;9.642;2022-12-17T06:40:20;99063.84;;;-5.18;100.00
20394;BME280;10356;50.544;9.642;2022-12-17T06:43:04;99063.88;;;-5.24;100.00
20394;BME280;10356;50.544;9.642;2022-12-17T06:45:50;99071.50;;;-5.39;100.00
20394;BME280;10356;50.544;9.642;2022-12-17T06:48:34;99085.91;;;-5.40;100.00
20394;BME280;10356;50.544;9.642;2022-12-17T06:51:20;99089.25;;;-5.33;100.00
20394;BME280;10356;50.544;9.642;2022-12-17T06:54:03;99080.78;;;-5.31;100.00
20394;BME280;10356;50.544;9.642;2022-12-17T06:56:47;99079.94;;;-5.37;100.00
20394;BME280;10356;50.544;9.642;2022-12-17T06:59:31;99090.09;;;-5.33;100.00
20394;BME280;10356;50.544;9.642;2022-12-17T07:02:18;99097.72;;;-5.34;100.00
20394;BME280;10356;50.544;9.642;2022-12-17T07:05:02;99099.41;;;-5.27;100.00
20394;BME280;10356;50.544;9.642;2022-12-17T07:07:56;99106.19;;;-5.26;100.00
20394;BME280;10356;50.544;9.642;2022-12-17T07:10:40;99115.50;;;-5.24;100.00
20394;BME280;10356;50.544;9.642;2022-12-17T07:13:24;99112.94;;;-5.19;100.00
20394;BME280;10356;50.544;9.642;2022-12-17T07:16:08;99116.31;;;-5.23;100.00
20394;BME280;10356;50.544;9.642;2022-12-17T07:18:52;99121.41;;;-5.23;100.00
20394;BME280;10356;50.544;9.642;2022-12-17T07:21:36;99131.59;;;-5.46;100.00
20394;BME280;10356;50.544;9.642;2022-12-17T07:24:21;99140.03;;;-5.39;100.00
20394;BME280;10356;50.544;9.642;2022-12-17T07:27:05;99135.84;;;-5.42;100.00
20394;BME280;10356;50.544;9.642;2022-12-17T07:29:49;99140.03;;;-5.39;100.00
20394;BME280;10356;50.544;9.642;2022-12-17T07:32:33;99148.50;;;-5.34;100.00
20394;BME280;10356;50.544;9.642;2022-12-17T07:35:17;99145.13;;;-5.33;100.00
20394;BME280;10356;50.544;9.642;2022-12-17T07:38:02;99149.34;;;-5.37;100.00
20394;BME280;10356;50.544;9.642;2022-12-17T07:40:48;99147.66;;;-5.33;100.00
20394;BME280;10356;50.544;9.642;2022-12-17T07:43:32;99158.66;;;-5.43;100.00
20394;BME280;10356;50.544;9.642;2022-12-17T07:46:16;99168.81;;;-5.58;100.00
20394;BME280;10356;50.544;9.642;2022-12-17T07:49:01;99169.66;;;-5.62;100.00
20394;BME280;10356;50.544;9.642;2022-12-17T07:51:45;99174.72;;;-5.65;100.00
20394;BME280;10356;50.544;9.642;2022-12-17T07:54:29;99182.34;;;-5.64;100.00
20394;BME280;10356;50.544;9.642;2022-12-17T07:57:14;99192.47;;;-5.86;100.00
20394;BME280;10356;50.544;9.642;2022-12-17T07:59:58;99192.47;;;-5.88;100.00
20394;BME280;10356;50.544;9.642;2022-12-17T08:02:42;99191.63;;;-5.72;100.00
20394;BME280;10356;50.544;9.642;2022-12-17T08:05:26;99195.00;;;-5.73;100.00
20394;BME280;10356;50.544;9.642;2022-12-17T08:08:11;99206.00;;;-5.77;100.00
20394;BME280;10356;50.544;9.642;2022-12-17T08:10:56;99204.31;;;-5.78;100.00
20394;BME280;10356;50.544;9.642;2022-12-17T08:13:41;99213.59;;;-5.78;100.00
20394;BME280;10356;50.544;9.642;2022-12-17T08:16:26;99215.34;;;-5.64;100.00
20394;BME280;10356;50.544;9.642;2022-12-17T08:19:09;99211.09;;;-5.66;100.00
20394;BME280;10356;50.544;9.642;2022-12-17T08:21:53;99219.56;;;-5.70;100.00
20394;BME280;10356;50.544;9.642;2022-12-17T08:24:37;99220.41;;;-5.61;100.00
20394;BME280;10356;50.544;9.642;2022-12-17T08:27:21;99221.25;;;-5.57;100.00
20394;BME280;10356;50.544;9.642;2022-12-17T08:30:07;99226.31;;;-5.84;100.00
20394;BME280;10356;50.544;9.642;2022-12-17T08:32:52;99228.00;;;-5.65;100.00
20394;BME280;10356;50.544;9.642;2022-12-17T08:35:36;99233.94;;;-5.59;100.00
20394;BME280;10356;50.544;9.642;2022-12-17T08:38:19;99244.97;;;-5.54;100.00
20394;BME280;10356;50.544;9.642;2022-12-17T08:41:03;99239.91;;;-5.34;100.00
20394;BME280;10356;50.544;9.642;2022-12-17T08:43:47;99239.91;;;-5.34;100.00
20394;BME280;10356;50.544;9.642;2022-12-17T08:46:33;99243.28;;;-5.35;100.00
20394;BME280;10356;50.544;9.642;2022-12-17T08:49:20;99234.84;;;-5.33;100.00
20394;BME280;10356;50.544;9.642;2022-12-17T08:52:04;99240.75;;;-5.37;100.00
20394;BME280;10356;50.544;9.642;2022-12-17T08:54:48;99249.22;;;-5.33;100.00
20394;BME280;10356;50.544;9.642;2022-12-17T08:57:31;99246.72;;;-5.20;100.00
20394;BME280;10356;50.544;9.642;2022-12-17T09:00:16;99248.38;;;-5.17;100.00
20394;BME280;10356;50.544;9.642;2022-12-17T09:03:02;99256.00;;;-5.25;100.00
20394;BME280;10356;50.544;9.642;2022-12-17T09:05:59;99257.69;;;-5.28;100.00
20394;BME280;10356;50.544;9.642;2022-12-17T09:08:43;99263.59;;;-5.35;100.00
20394;BME280;10356;50.544;9.642;2022-12-17T09:11:27;99262.78;;;-5.19;100.00
20394;BME280;10356;50.544;9.642;2022-12-17T09:14:11;99267.03;;;-5.18;100.00
20394;BME280;10356;50.544;9.642;2022-12-17T09:16:55;99263.63;;;-5.29;100.00
20394;BME280;10356;50.544;9.642;2022-12-17T09:19:43;99267.88;;;-5.16;100.00
20394;BME280;10356;50.544;9.642;2022-12-17T09:22:27;99272.13;;;-5.15;100.00
20394;BME280;10356;50.544;9.642;2022-12-17T09:25:16;99273.81;;;-5.16;100.00
20394;BME280;10356;50.544;9.642;2022-12-17T09:28:01;99273.81;;;-5.14;100.00
20394;BME280;10356;50.544;9.642;2022-12-17T09:30:45;99275.47;;;-5.25;100.00
20394;BME280;10356;50.544;9.642;2022-12-17T09:33:30;99278.84;;;-5.35;99.86
20394;BME280;10356;50.544;9.642;2022-12-17T09:36:15;99280.59;;;-5.13;100.00
20394;BME280;10356;50.544;9.642;2022-12-17T09:38:59;99280.56;;;-5.21;99.55
20394;BME280;10356;50.544;9.642;2022-12-17T09:41:49;99280.59;;;-5.12;99.82
20394;BME280;10356;50.544;9.642;2022-12-17T09:44:40;99289.03;;;-5.25;99.77
20394;BME280;10356;50.544;9.642;2022-12-17T09:47:36;99289.88;;;-5.11;99.08
20394;BME280;10356;50.544;9.642;2022-12-17T09:50:23;99278.03;;;-5.16;98.11
20394;BME280;10356;50.544;9.642;2022-12-17T09:53:19;99286.53;;;-4.91;97.77
20394;BME280;10356;50.544;9.642;2022-12-17T09:56:09;99287.38;;;-4.77;97.42
20394;BME280;10356;50.544;9.642;2022-12-17T09:58:54;99284.81;;;-4.58;97.07
20394;BME280;10356;50.544;9.642;2022-12-17T10:01:38;99285.69;;;-4.95;96.53
20394;BME280;10356;50.544;9.642;2022-12-17T10:04:29;99289.06;;;-5.05;96.26
20394;BME280;10356;50.544;9.642;2022-12-17T10:07:19;99294.16;;;-4.84;95.91
20394;BME280;10356;50.544;9.642;2022-12-17T10:10:14;99294.16;;;-5.05;95.39
20394;BME280;10356;50.544;9.642;2022-12-17T10:12:59;99301.75;;;-5.06;96.26
20394;BME280;10356;50.544;9.642;2022-12-17T10:15:43;99291.59;;;-4.76;95.45
20394;BME280;10356;50.544;9.642;2022-12-17T10:18:28;99282.31;;;-4.67;94.73
20394;BME280;10356;50.544;9.642;2022-12-17T10:21:12;99282.28;;;-4.56;93.48
20394;BME280;10356;50.544;9.642;2022-12-17T10:24:03;99279.75;;;-4.70;93.57
20394;BME280;10356;50.544;9.642;2022-12-17T10:26:51;99283.97;;;-4.66;93.18
20394;BME280;10356;50.544;9.642;2022-12-17T10:29:36;99288.22;;;-4.65;93.09
20394;BME280;10356;50.544;9.642;2022-12-17T10:32:21;99278.91;;;-4.69;93.36
20394;BME280;10356;50.544;9.642;2022-12-17T10:35:10;99285.69;;;-4.84;94.14
20394;BME280;10356;50.544;9.642;2022-12-17T10:37:55;99282.31;;;-4.77;92.90
20394;BME280;10356;50.544;9.642;2022-12-17T10:40:39;99282.28;;;-4.94;94.29
20394;BME280;10356;50.544;9.642;2022-12-17T10:43:29;99284.00;;;-4.63;94.80
20394;BME280;10356;50.544;9.642;2022-12-17T10:46:22;99283.97;;;-4.66;93.82
20394;BME280;10356;50.544;9.642;2022-12-17T10:49:12;99284.81;;;-4.86;94.36
20394;BME280;10356;50.544;9.642;2022-12-17T10:52:05;99291.59;;;-4.90;95.18
20394;BME280;10356;50.544;9.642;2022-12-17T10:55:17;99300.03;;;-5.18;95.81
20394;BME280;10356;50.544;9.642;2022-12-17T10:58:02;99295.84;;;-4.72;95.54
20394;BME280;10356;50.544;9.642;2022-12-17T11:00:48;99300.94;;;-4.75;93.46
20394;BME280;10356;50.544;9.642;2022-12-17T11:03:37;99304.34;;;-4.75;93.25
20394;BME280;10356;50.544;9.642;2022-12-17T11:06:33;99304.34;;;-4.57;93.72
20394;BME280;10356;50.544;9.642;2022-12-17T11:09:29;99301.75;;;-4.36;92.88
20394;BME280;10356;50.544;9.642;2022-12-17T11:12:16;99301.78;;;-4.51;93.47
20394;BME280;10356;50.544;9.642;2022-12-17T11:15:07;99300.91;;;-4.35;92.60
20394;BME280;10356;50.544;9.642;2022-12-17T11:18:00;99302.59;;;-4.46;93.44
20394;BME280;10356;50.544;9.642;2022-12-17T11:20:48;99307.72;;;-4.67;92.57
20394;BME280;10356;50.544;9.642;2022-12-17T11:23:35;99311.94;;;-4.49;93.84
20394;BME280;10356;50.544;9.642;2022-12-17T11:26:20;99303.41;;;-4.10;93.26
20394;BME280;10356;50.544;9.642;2022-12-17T11:29:09;99300.81;;;-4.01;92.17
20394;BME280;10356;50.544;9.642;2022-12-17T11:32:09;99301.66;;;-3.89;90.75
20394;BME280;10356;50.544;9.642;2022-12-17T11:35:04;99292.22;;;-3.64;90.18
20394;BME280;10356;50.544;9.642;2022-12-17T11:37:57;99298.19;;;-3.68;90.02
20394;BME280;10356;50.544;9.642;2022-12-17T11:40:47;99298.97;;;-3.54;89.04
20394;BME280;10356;50.544;9.642;2022-12-17T11:43:36;99297.16;;;-3.37;88.81
20394;BME280;10356;50.544;9.642;2022-12-17T11:46:31;99301.47;;;-3.51;87.99
20394;BME280;10356;50.544;9.642;2022-12-17T11:49:28;99307.41;;;-3.49;87.12
20394;BME280;10356;50.544;9.642;2022-12-17T11:52:22;99301.47;;;-3.44;87.49
20394;BME280;10356;50.544;9.642;2022-12-17T11:55:18;99308.25;;;-3.47;87.80
20394;BME280;10356;50.544;9.642;2022-12-17T11:58:06;99307.47;;;-3.54;87.48
20394;BME280;10356;50.544;9.642;2022-12-17T12:01:01;99307.53;;;-3.70;87.34
20394;BME280;10356;50.544;9.642;2022-12-17T12:03:57;99300.78;;;-3.80;88.37
20394;BME280;10356;50.544;9.642;2022-12-17T12:06:55;99309.28;;;-3.90;88.81
20394;BME280;10356;50.544;9.642;2022-12-17T12:09:47;99311.84;;;-3.95;88.47
20394;BME280;10356;50.544;9.642;2022-12-17T12:12:45;99306.81;;;-4.14;89.04
20394;BME280;10356;50.544;9.642;2022-12-17T12:15:40;99306.78;;;-4.16;88.86
20394;BME280;10356;50.544;9.642;2022-12-17T12:18:34;99308.53;;;-4.22;88.79
20394;BME280;10356;50.544;9.642;2022-12-17T12:21:31;99310.22;;;-4.34;89.41
20394;BME280;10356;50.544;9.642;2022-12-17T12:27:36;99304.28;;;-4.23;88.63
20394;BME280;10356;50.544;9.642;2022-12-17T12:30:28;99316.16;;;-4.16;89.24
20394;BME280;10356;50.544;9.642;2022-12-17T12:33:26;99312.75;;;-4.12;89.25
20394;BME280;10356;50.544;9.642;2022-12-17T12:36:16;99308.47;;;-4.06;89.40
20394;BME280;10356;50.544;9.642;2022-12-17T12:39:01;99316.91;;;-3.98;88.92
20394;BME280;10356;50.544;9.642;2022-12-17T12:41:50;99317.75;;;-3.91;88.27
20394;BME280;10356;50.544;9.642;2022-12-17T12:44:44;99312.69;;;-3.88;88.16
20394;BME280;10356;50.544;9.642;2022-12-17T12:47:36;99310.97;;;-3.85;87.62
20394;BME280;10356;50.544;9.642;2022-12-17T12:50:29;99312.66;;;-3.82;88.00
20394;BME280;10356;50.544;9.642;2022-12-17T12:53:18;99321.13;;;-3.79;87.74
20394;BME280;10356;50.544;9.642;2022-12-17T12:56:03;99324.50;;;-3.72;88.04
20394;BME280;10356;50.544;9.642;2022-12-17T12:59:10;99321.09;;;-3.68;87.84
20394;BME280;10356;50.544;9.642;2022-12-17T13:01:55;99326.19;;;-3.64;87.97
20394;BME280;10356;50.544;9.642;2022-12-17T13:04:41;99322.78;;;-3.64;87.97
20394;BME280;10356;50.544;9.642;2022-12-17T13:07:27;99312.63;;;-3.75;88.56
20394;BME280;10356;50.544;9.642;2022-12-17T13:09:55;99317.72;;;-3.76;88.91
20394;BME280;10356;50.544;9.642;2022-12-17T13:12:28;99316.84;;;-3.75;89.23
20394;BME280;10356;50.544;9.642;2022-12-17T13:15:08;99312.59;;;-3.73;89.15
20394;BME280;10356;50.544;9.642;2022-12-17T13:17:44;99308.34;;;-3.65;88.99
20394;BME280;10356;50.544;9.642;2022-12-17T13:20:25;99315.16;;;-3.69;89.24
20394;BME280;10356;50.544;9.642;2022-12-17T13:23:03;99310.91;;;-3.67;88.94
20394;BME280;10356;50.544;9.642;2022-12-17T13:25:29;99318.53;;;-3.62;89.29
20394;BME280;10356;50.544;9.642;2022-12-17T13:27:56;99306.63;;;-3.60;88.99
20394;BME280;10356;50.544;9.642;2022-12-17T13:30:30;99307.47;;;-3.61;88.29
20394;BME280;10356;50.544;9.642;2022-12-17T13:33:15;99311.75;;;-3.69;88.61
20394;BME280;10356;50.544;9.642;2022-12-17T13:35:48;99316.00;;;-3.71;88.80
20394;BME280;10356;50.544;9.642;2022-12-17T13:38:24;99318.56;;;-3.74;88.78
20394;BME280;10356;50.544;9.642;2022-12-17T13:41:03;99319.41;;;-3.75;89.40
20394;BME280;10356;50.544;9.642;2022-12-17T13:43:33;99315.19;;;-3.79;89.46
20394;BME280;10356;50.544;9.642;2022-12-17T13:46:04;99318.59;;;-3.82;88.56
20394;BME280;10356;50.544;9.642;2022-12-17T13:48:32;99317.75;;;-3.85;88.71
20394;BME280;10356;50.544;9.642;2022-12-17T13:51:00;99319.47;;;-3.90;88.99
20394;BME280;10356;50.544;9.642;2022-12-17T13:53:28;99320.31;;;-3.96;89.15
20394;BME280;10356;50.544;9.642;2022-12-17T13:56:01;99327.97;;;-3.97;89.51
20394;BME280;10356;50.544;9.642;2022-12-17T13:58:28;99331.38;;;-3.98;89.30
20394;BME280;10356;50.544;9.642;2022-12-17T14:01:06;99331.38;;;-4.03;89.64
20394;BME280;10356;50.544;9.642;2022-12-17T14:03:34;99333.94;;;-4.09;90.17
20394;BME280;10356;50.544;9.642;2022-12-17T14:06:01;99341.56;;;-4.15;89.80
20394;BME280;10356;50.544;9.642;2022-12-17T14:08:30;99339.91;;;-4.20;90.06
20394;BME280;10356;50.544;9.642;2022-12-17T14:10:57;99344.13;;;-4.26;90.93
20394;BME280;10356;50.544;9.642;2022-12-17T14:13:38;99346.69;;;-4.32;90.77
20394;BME280;10356;50.544;9.642;2022-12-17T14:16:06;99340.75;;;-4.35;91.52
20394;BME280;10356;50.544;9.642;2022-12-17T14:18:34;99342.44;;;-4.42;91.07
20394;BME280;10356;50.544;9.642;2022-12-17T14:21:02;99337.38;;;-4.51;91.04
20394;BME280;10356;50.544;9.642;2022-12-17T14:23:31;99338.22;;;-4.58;91.89
20394;BME280;10356;50.544;9.642;2022-12-17T14:25:58;99339.91;;;-4.64;92.31
20394;BME280;10356;50.544;9.642;2022-12-17T14:28:29;99340.75;;;-4.68;92.63